Skip Navigation Links Skip Navigation Links

Current Weather

Wonderboom / Pretoria, South Africa

For information only: do not use for flight planning or navigation.
Latest weather
Observation time Sunday, August 1, 2021 11:00 AM SAST
Local time Sunday, August 1, 2021 11:41 AM SAST
Flight conditions Conditions unknown
Winds
Wind direction West (260°)
Wind speed 7 mph
Sky condition
Ceiling unlimited
Temperature 66°F
Dewpoint 28°F
Altimeter 30.48 in.Hg
Derived measurements
Relative humidity 24%
Density altitude 1175 ft.
Remarks
Fully automated report.
METAR FAWB 010900Z AUTO 26006KT //// // ////// 19/M02 Q1032

Settings

Location code

InnerDrive.Weather 4.0.6770.0 Release CLR 4.0.30319.42000
Copyright ©2018 Inner Drive Technology. All rights reserved. Portions Copyright ©1986-2018 David Braverman.

Find weather

Site navigation


Skip Navigation Links

Place info

Page info

PayPal - The safer, easier way to pay online!

Return home.

Copyright ©2021 Inner Drive Technology. Purveyors of fine, hand-crafted computer software. Page printed 2021-08-01T09:41:56 UTC.